sensor_id;sensor_type;location;lat;lon;timestamp;P1;durP1;ratioP1;P2;durP2;ratioP2
18899;SDS011;9582;52.018;6.306;2023-08-07T00:00:57;3.35;;;0.85;;
18899;SDS011;9582;52.018;6.306;2023-08-07T00:03:23;5.28;;;1.10;;
18899;SDS011;9582;52.018;6.306;2023-08-07T00:05:50;3.38;;;0.80;;
18899;SDS011;9582;52.018;6.306;2023-08-07T00:08:17;2.95;;;0.90;;
18899;SDS011;9582;52.018;6.306;2023-08-07T00:10:43;2.47;;;0.75;;
18899;SDS011;9582;52.018;6.306;2023-08-07T00:13:11;2.83;;;0.80;;
18899;SDS011;9582;52.018;6.306;2023-08-07T00:15:38;4.30;;;0.98;;
18899;SDS011;9582;52.018;6.306;2023-08-07T00:18:04;0.98;;;0.60;;
18899;SDS011;9582;52.018;6.306;2023-08-07T00:20:31;1.52;;;0.98;;
18899;SDS011;9582;52.018;6.306;2023-08-07T00:22:57;2.85;;;1.00;;
18899;SDS011;9582;52.018;6.306;2023-08-07T00:25:24;2.83;;;0.88;;
18899;SDS011;9582;52.018;6.306;2023-08-07T00:27:50;2.88;;;1.00;;
18899;SDS011;9582;52.018;6.306;2023-08-07T00:30:18;4.28;;;0.80;;
18899;SDS011;9582;52.018;6.306;2023-08-07T00:32:45;3.00;;;0.93;;
18899;SDS011;9582;52.018;6.306;2023-08-07T00:35:11;1.95;;;0.68;;
18899;SDS011;9582;52.018;6.306;2023-08-07T00:37:38;1.55;;;0.80;;
18899;SDS011;9582;52.018;6.306;2023-08-07T00:40:05;1.63;;;1.13;;
18899;SDS011;9582;52.018;6.306;2023-08-07T00:42:32;1.63;;;0.70;;
18899;SDS011;9582;52.018;6.306;2023-08-07T00:44:59;4.13;;;1.00;;
18899;SDS011;9582;52.018;6.306;2023-08-07T00:47:27;2.45;;;0.80;;
18899;SDS011;9582;52.018;6.306;2023-08-07T00:49:54;2.78;;;0.73;;
18899;SDS011;9582;52.018;6.306;2023-08-07T00:52:22;2.95;;;0.80;;
18899;SDS011;9582;52.018;6.306;2023-08-07T00:54:49;0.90;;;0.70;;
18899;SDS011;9582;52.018;6.306;2023-08-07T00:57:15;2.75;;;0.60;;
18899;SDS011;9582;52.018;6.306;2023-08-07T00:59:47;2.25;;;0.77;;
18899;SDS011;9582;52.018;6.306;2023-08-07T01:02:15;1.75;;;0.70;;
18899;SDS011;9582;52.018;6.306;2023-08-07T01:04:43;1.65;;;0.80;;
18899;SDS011;9582;52.018;6.306;2023-08-07T01:07:09;3.13;;;0.77;;
18899;SDS011;9582;52.018;6.306;2023-08-07T01:09:36;1.52;;;0.98;;
18899;SDS011;9582;52.018;6.306;2023-08-07T01:12:06;1.90;;;0.85;;
18899;SDS011;9582;52.018;6.306;2023-08-07T01:14:41;3.28;;;0.95;;
18899;SDS011;9582;52.018;6.306;2023-08-07T01:17:15;1.80;;;0.90;;
18899;SDS011;9582;52.018;6.306;2023-08-07T01:19:44;1.67;;;1.08;;
18899;SDS011;9582;52.018;6.306;2023-08-07T01:22:13;2.95;;;0.80;;
18899;SDS011;9582;52.018;6.306;2023-08-07T01:24:41;5.00;;;1.00;;
18899;SDS011;9582;52.018;6.306;2023-08-07T01:27:12;3.03;;;1.10;;
18899;SDS011;9582;52.018;6.306;2023-08-07T01:29:52;3.58;;;1.13;;
18899;SDS011;9582;52.018;6.306;2023-08-07T01:32:26;3.85;;;1.20;;
18899;SDS011;9582;52.018;6.306;2023-08-07T01:34:59;3.97;;;1.10;;
18899;SDS011;9582;52.018;6.306;2023-08-07T01:37:29;3.55;;;1.30;;
18899;SDS011;9582;52.018;6.306;2023-08-07T01:39:58;4.32;;;1.77;;
18899;SDS011;9582;52.018;6.306;2023-08-07T01:42:29;5.68;;;1.20;;
18899;SDS011;9582;52.018;6.306;2023-08-07T01:44:55;4.05;;;1.30;;
18899;SDS011;9582;52.018;6.306;2023-08-07T01:47:22;3.72;;;1.33;;
18899;SDS011;9582;52.018;6.306;2023-08-07T01:49:49;7.05;;;2.00;;
18899;SDS011;9582;52.018;6.306;2023-08-07T01:52:15;5.57;;;1.42;;
18899;SDS011;9582;52.018;6.306;2023-08-07T01:54:43;6.20;;;1.80;;
18899;SDS011;9582;52.018;6.306;2023-08-07T01:57:09;7.60;;;1.50;;
18899;SDS011;9582;52.018;6.306;2023-08-07T01:59:36;4.75;;;1.50;;
18899;SDS011;9582;52.018;6.306;2023-08-07T02:02:03;7.50;;;1.65;;
18899;SDS011;9582;52.018;6.306;2023-08-07T02:04:29;6.70;;;1.55;;
18899;SDS011;9582;52.018;6.306;2023-08-07T02:06:56;7.05;;;1.70;;
18899;SDS011;9582;52.018;6.306;2023-08-07T02:09:23;6.38;;;1.85;;
18899;SDS011;9582;52.018;6.306;2023-08-07T02:11:50;4.50;;;1.60;;
18899;SDS011;9582;52.018;6.306;2023-08-07T02:14:17;4.18;;;1.52;;
18899;SDS011;9582;52.018;6.306;2023-08-07T02:16:43;4.85;;;1.60;;
18899;SDS011;9582;52.018;6.306;2023-08-07T02:19:11;4.68;;;1.90;;
18899;SDS011;9582;52.018;6.306;2023-08-07T02:21:38;6.10;;;1.95;;
18899;SDS011;9582;52.018;6.306;2023-08-07T02:24:04;6.47;;;2.38;;
18899;SDS011;9582;52.018;6.306;2023-08-07T02:26:31;4.65;;;1.88;;
18899;SDS011;9582;52.018;6.306;2023-08-07T02:28:59;4.22;;;1.90;;
18899;SDS011;9582;52.018;6.306;2023-08-07T02:31:25;5.25;;;2.08;;
18899;SDS011;9582;52.018;6.306;2023-08-07T02:33:53;6.22;;;2.00;;
18899;SDS011;9582;52.018;6.306;2023-08-07T02:36:19;6.47;;;2.33;;
18899;SDS011;9582;52.018;6.306;2023-08-07T02:38:46;5.68;;;1.98;;
18899;SDS011;9582;52.018;6.306;2023-08-07T02:41:13;5.75;;;2.47;;
18899;SDS011;9582;52.018;6.306;2023-08-07T02:43:39;10.73;;;3.22;;
18899;SDS011;9582;52.018;6.306;2023-08-07T02:46:07;7.00;;;2.10;;
18899;SDS011;9582;52.018;6.306;2023-08-07T02:48:34;7.60;;;2.30;;
18899;SDS011;9582;52.018;6.306;2023-08-07T02:51:00;8.38;;;2.70;;
18899;SDS011;9582;52.018;6.306;2023-08-07T02:53:27;5.90;;;2.20;;
18899;SDS011;9582;52.018;6.306;2023-08-07T02:55:53;4.75;;;2.13;;
18899;SDS011;9582;52.018;6.306;2023-08-07T02:58:20;9.52;;;2.47;;
18899;SDS011;9582;52.018;6.306;2023-08-07T03:00:46;8.10;;;2.50;;
18899;SDS011;9582;52.018;6.306;2023-08-07T03:03:14;6.82;;;2.45;;
18899;SDS011;9582;52.018;6.306;2023-08-07T03:05:47;8.40;;;3.00;;
18899;SDS011;9582;52.018;6.306;2023-08-07T03:08:14;9.35;;;2.67;;
18899;SDS011;9582;52.018;6.306;2023-08-07T03:10:40;8.25;;;2.38;;
18899;SDS011;9582;52.018;6.306;2023-08-07T03:13:07;6.15;;;2.20;;
18899;SDS011;9582;52.018;6.306;2023-08-07T03:15:34;12.18;;;2.95;;
18899;SDS011;9582;52.018;6.306;2023-08-07T03:18:00;7.22;;;2.10;;
18899;SDS011;9582;52.018;6.306;2023-08-07T03:20:28;6.82;;;1.98;;
18899;SDS011;9582;52.018;6.306;2023-08-07T03:22:54;6.97;;;2.35;;
18899;SDS011;9582;52.018;6.306;2023-08-07T03:25:21;5.78;;;2.35;;
18899;SDS011;9582;52.018;6.306;2023-08-07T03:27:48;5.15;;;2.40;;
18899;SDS011;9582;52.018;6.306;2023-08-07T03:30:14;5.90;;;2.17;;
18899;SDS011;9582;52.018;6.306;2023-08-07T03:32:41;4.45;;;1.70;;
18899;SDS011;9582;52.018;6.306;2023-08-07T03:35:08;8.85;;;2.60;;
18899;SDS011;9582;52.018;6.306;2023-08-07T03:37:36;5.88;;;1.73;;
18899;SDS011;9582;52.018;6.306;2023-08-07T03:40:03;7.55;;;2.20;;
18899;SDS011;9582;52.018;6.306;2023-08-07T03:42:31;5.82;;;1.70;;
18899;SDS011;9582;52.018;6.306;2023-08-07T03:44:58;6.68;;;1.95;;
18899;SDS011;9582;52.018;6.306;2023-08-07T03:47:24;2.75;;;1.52;;
18899;SDS011;9582;52.018;6.306;2023-08-07T03:49:51;5.18;;;2.13;;
18899;SDS011;9582;52.018;6.306;2023-08-07T03:52:17;4.95;;;1.73;;
18899;SDS011;9582;52.018;6.306;2023-08-07T03:54:45;6.28;;;1.80;;
18899;SDS011;9582;52.018;6.306;2023-08-07T03:57:12;2.67;;;1.25;;
18899;SDS011;9582;52.018;6.306;2023-08-07T03:59:38;5.93;;;2.05;;
18899;SDS011;9582;52.018;6.306;2023-08-07T04:02:05;5.22;;;2.25;;
18899;SDS011;9582;52.018;6.306;2023-08-07T04:04:31;6.85;;;1.88;;
18899;SDS011;9582;52.018;6.306;2023-08-07T04:06:58;3.95;;;1.80;;
18899;SDS011;9582;52.018;6.306;2023-08-07T04:09:24;5.28;;;1.75;;
18899;SDS011;9582;52.018;6.306;2023-08-07T04:11:52;2.72;;;1.45;;
18899;SDS011;9582;52.018;6.306;2023-08-07T04:14:20;3.08;;;1.42;;
18899;SDS011;9582;52.018;6.306;2023-08-07T04:16:46;3.42;;;1.70;;
18899;SDS011;9582;52.018;6.306;2023-08-07T04:19:13;3.00;;;1.45;;
18899;SDS011;9582;52.018;6.306;2023-08-07T04:21:40;3.72;;;1.73;;
18899;SDS011;9582;52.018;6.306;2023-08-07T04:24:08;8.95;;;2.15;;
18899;SDS011;9582;52.018;6.306;2023-08-07T04:26:36;4.45;;;2.15;;
18899;SDS011;9582;52.018;6.306;2023-08-07T04:29:04;4.70;;;1.75;;
18899;SDS011;9582;52.018;6.306;2023-08-07T04:31:30;5.15;;;1.73;;
18899;SDS011;9582;52.018;6.306;2023-08-07T04:33:57;3.70;;;1.73;;
18899;SDS011;9582;52.018;6.306;2023-08-07T04:36:23;5.25;;;2.03;;
18899;SDS011;9582;52.018;6.306;2023-08-07T04:38:50;7.97;;;2.83;;
18899;SDS011;9582;52.018;6.306;2023-08-07T04:41:16;5.22;;;2.10;;
18899;SDS011;9582;52.018;6.306;2023-08-07T04:43:44;3.30;;;1.95;;
18899;SDS011;9582;52.018;6.306;2023-08-07T04:46:12;4.90;;;1.98;;
18899;SDS011;9582;52.018;6.306;2023-08-07T04:48:39;7.07;;;2.78;;
18899;SDS011;9582;52.018;6.306;2023-08-07T04:51:05;6.43;;;1.90;;
18899;SDS011;9582;52.018;6.306;2023-08-07T04:53:32;6.72;;;2.22;;
18899;SDS011;9582;52.018;6.306;2023-08-07T04:55:59;8.23;;;2.58;;
18899;SDS011;9582;52.018;6.306;2023-08-07T04:58:26;4.40;;;1.88;;
18899;SDS011;9582;52.018;6.306;2023-08-07T05:00:54;4.88;;;2.42;;
18899;SDS011;9582;52.018;6.306;2023-08-07T05:03:22;6.60;;;2.15;;
18899;SDS011;9582;52.018;6.306;2023-08-07T05:05:49;5.20;;;2.08;;
18899;SDS011;9582;52.018;6.306;2023-08-07T05:08:16;5.90;;;1.95;;
18899;SDS011;9582;52.018;6.306;2023-08-07T05:10:42;6.43;;;2.20;;
18899;SDS011;9582;52.018;6.306;2023-08-07T05:13:09;3.50;;;1.95;;
18899;SDS011;9582;52.018;6.306;2023-08-07T05:15:35;6.40;;;2.05;;
18899;SDS011;9582;52.018;6.306;2023-08-07T05:18:02;7.20;;;2.00;;
18899;SDS011;9582;52.018;6.306;2023-08-07T05:20:30;5.47;;;2.10;;
18899;SDS011;9582;52.018;6.306;2023-08-07T05:22:56;5.70;;;1.98;;
18899;SDS011;9582;52.018;6.306;2023-08-07T05:25:23;3.83;;;1.75;;
18899;SDS011;9582;52.018;6.306;2023-08-07T05:27:49;6.78;;;1.85;;
18899;SDS011;9582;52.018;6.306;2023-08-07T05:30:16;5.00;;;1.80;;
18899;SDS011;9582;52.018;6.306;2023-08-07T05:32:42;3.67;;;1.90;;
18899;SDS011;9582;52.018;6.306;2023-08-07T05:35:09;3.75;;;1.73;;
18899;SDS011;9582;52.018;6.306;2023-08-07T05:37:37;1.70;;;1.30;;
18899;SDS011;9582;52.018;6.306;2023-08-07T05:40:04;6.32;;;1.95;;
18899;SDS011;9582;52.018;6.306;2023-08-07T05:42:31;4.60;;;1.70;;
18899;SDS011;9582;52.018;6.306;2023-08-07T05:44:59;4.43;;;1.50;;
18899;SDS011;9582;52.018;6.306;2023-08-07T05:47:25;4.03;;;1.27;;
18899;SDS011;9582;52.018;6.306;2023-08-07T05:49:52;4.85;;;1.63;;
18899;SDS011;9582;52.018;6.306;2023-08-07T05:52:18;3.22;;;1.38;;
18899;SDS011;9582;52.018;6.306;2023-08-07T05:54:46;3.78;;;1.63;;
18899;SDS011;9582;52.018;6.306;2023-08-07T05:57:13;2.70;;;1.58;;
18899;SDS011;9582;52.018;6.306;2023-08-07T05:59:40;4.13;;;1.67;;
18899;SDS011;9582;52.018;6.306;2023-08-07T06:02:06;4.88;;;1.30;;
18899;SDS011;9582;52.018;6.306;2023-08-07T06:04:35;3.92;;;1.55;;
18899;SDS011;9582;52.018;6.306;2023-08-07T06:07:02;2.95;;;1.70;;
18899;SDS011;9582;52.018;6.306;2023-08-07T06:09:29;6.38;;;1.63;;
18899;SDS011;9582;52.018;6.306;2023-08-07T06:11:57;5.55;;;1.75;;
18899;SDS011;9582;52.018;6.306;2023-08-07T06:14:23;3.60;;;1.50;;
18899;SDS011;9582;52.018;6.306;2023-08-07T06:16:50;2.78;;;1.60;;
18899;SDS011;9582;52.018;6.306;2023-08-07T06:19:17;3.25;;;1.38;;
18899;SDS011;9582;52.018;6.306;2023-08-07T06:21:45;3.70;;;1.60;;
18899;SDS011;9582;52.018;6.306;2023-08-07T06:24:11;4.85;;;1.80;;
18899;SDS011;9582;52.018;6.306;2023-08-07T06:26:38;5.13;;;2.05;;
18899;SDS011;9582;52.018;6.306;2023-08-07T06:29:06;5.63;;;2.03;;
18899;SDS011;9582;52.018;6.306;2023-08-07T06:31:32;5.35;;;1.85;;
18899;SDS011;9582;52.018;6.306;2023-08-07T06:33:59;6.07;;;2.20;;
18899;SDS011;9582;52.018;6.306;2023-08-07T06:36:25;5.53;;;1.90;;
18899;SDS011;9582;52.018;6.306;2023-08-07T06:38:52;4.53;;;2.00;;
18899;SDS011;9582;52.018;6.306;2023-08-07T06:41:18;5.95;;;2.40;;
18899;SDS011;9582;52.018;6.306;2023-08-07T06:43:45;5.70;;;2.60;;
18899;SDS011;9582;52.018;6.306;2023-08-07T06:46:12;5.15;;;2.13;;
18899;SDS011;9582;52.018;6.306;2023-08-07T06:48:39;5.95;;;2.10;;
18899;SDS011;9582;52.018;6.306;2023-08-07T06:51:05;5.30;;;2.70;;
18899;SDS011;9582;52.018;6.306;2023-08-07T06:53:32;6.13;;;2.17;;
18899;SDS011;9582;52.018;6.306;2023-08-07T06:55:58;3.55;;;1.88;;
18899;SDS011;9582;52.018;6.306;2023-08-07T06:58:25;4.95;;;1.95;;
18899;SDS011;9582;52.018;6.306;2023-08-07T07:00:51;7.60;;;2.35;;
18899;SDS011;9582;52.018;6.306;2023-08-07T07:03:19;6.57;;;2.13;;
18899;SDS011;9582;52.018;6.306;2023-08-07T07:05:45;4.50;;;2.38;;
18899;SDS011;9582;52.018;6.306;2023-08-07T07:08:12;4.30;;;1.88;;
18899;SDS011;9582;52.018;6.306;2023-08-07T07:10:38;5.63;;;2.33;;
18899;SDS011;9582;52.018;6.306;2023-08-07T07:13:05;8.23;;;2.70;;
18899;SDS011;9582;52.018;6.306;2023-08-07T07:15:33;6.97;;;3.38;;
18899;SDS011;9582;52.018;6.306;2023-08-07T07:18:00;5.88;;;3.28;;
18899;SDS011;9582;52.018;6.306;2023-08-07T07:20:28;8.32;;;3.20;;
18899;SDS011;9582;52.018;6.306;2023-08-07T07:22:54;10.88;;;3.75;;
18899;SDS011;9582;52.018;6.306;2023-08-07T07:25:21;10.35;;;3.65;;
18899;SDS011;9582;52.018;6.306;2023-08-07T07:27:47;14.57;;;4.07;;
18899;SDS011;9582;52.018;6.306;2023-08-07T07:30:14;10.48;;;3.63;;
18899;SDS011;9582;52.018;6.306;2023-08-07T07:32:40;14.32;;;4.93;;
18899;SDS011;9582;52.018;6.306;2023-08-07T07:35:08;10.18;;;4.00;;
18899;SDS011;9582;52.018;6.306;2023-08-07T07:37:36;12.98;;;4.20;;
18899;SDS011;9582;52.018;6.306;2023-08-07T07:40:03;12.85;;;4.50;;
18899;SDS011;9582;52.018;6.306;2023-08-07T07:42:30;10.43;;;3.88;;
18899;SDS011;9582;52.018;6.306;2023-08-07T07:44:56;16.98;;;4.18;;
18899;SDS011;9582;52.018;6.306;2023-08-07T07:47:22;10.38;;;3.25;;
18899;SDS011;9582;52.018;6.306;2023-08-07T07:50:03;9.73;;;3.33;;
18899;SDS011;9582;52.018;6.306;2023-08-07T07:52:32;10.27;;;3.45;;
18899;SDS011;9582;52.018;6.306;2023-08-07T07:55:00;9.60;;;3.05;;
18899;SDS011;9582;52.018;6.306;2023-08-07T07:57:27;9.55;;;3.42;;
18899;SDS011;9582;52.018;6.306;2023-08-07T07:59:53;8.63;;;3.00;;
18899;SDS011;9582;52.018;6.306;2023-08-07T08:02:20;6.32;;;3.15;;
18899;SDS011;9582;52.018;6.306;2023-08-07T08:04:47;8.88;;;3.25;;
18899;SDS011;9582;52.018;6.306;2023-08-07T08:07:14;11.15;;;3.10;;
18899;SDS011;9582;52.018;6.306;2023-08-07T08:09:40;7.45;;;3.58;;
18899;SDS011;9582;52.018;6.306;2023-08-07T08:12:08;9.15;;;3.53;;
18899;SDS011;9582;52.018;6.306;2023-08-07T08:14:35;9.02;;;3.60;;
18899;SDS011;9582;52.018;6.306;2023-08-07T08:17:02;8.40;;;2.95;;
18899;SDS011;9582;52.018;6.306;2023-08-07T08:19:28;12.43;;;3.50;;
18899;SDS011;9582;52.018;6.306;2023-08-07T08:21:55;16.40;;;4.72;;
18899;SDS011;9582;52.018;6.306;2023-08-07T08:24:21;10.27;;;3.58;;
18899;SDS011;9582;52.018;6.306;2023-08-07T08:26:48;8.93;;;2.88;;
18899;SDS011;9582;52.018;6.306;2023-08-07T08:29:16;8.15;;;3.30;;
18899;SDS011;9582;52.018;6.306;2023-08-07T08:31:42;7.95;;;2.67;;
18899;SDS011;9582;52.018;6.306;2023-08-07T08:34:09;6.85;;;2.95;;
18899;SDS011;9582;52.018;6.306;2023-08-07T08:36:35;7.85;;;2.40;;
18899;SDS011;9582;52.018;6.306;2023-08-07T08:39:02;8.98;;;3.10;;
18899;SDS011;9582;52.018;6.306;2023-08-07T08:41:28;8.88;;;2.88;;
18899;SDS011;9582;52.018;6.306;2023-08-07T08:43:57;7.05;;;2.28;;
18899;SDS011;9582;52.018;6.306;2023-08-07T08:46:27;8.98;;;2.88;;
18899;SDS011;9582;52.018;6.306;2023-08-07T08:48:56;5.88;;;2.20;;
18899;SDS011;9582;52.018;6.306;2023-08-07T08:51:24;5.85;;;2.30;;
18899;SDS011;9582;52.018;6.306;2023-08-07T08:53:51;9.48;;;3.08;;
18899;SDS011;9582;52.018;6.306;2023-08-07T08:56:18;7.82;;;2.55;;
18899;SDS011;9582;52.018;6.306;2023-08-07T08:58:47;8.55;;;2.45;;
18899;SDS011;9582;52.018;6.306;2023-08-07T09:01:15;5.72;;;2.28;;
18899;SDS011;9582;52.018;6.306;2023-08-07T09:03:44;5.13;;;2.20;;
18899;SDS011;9582;52.018;6.306;2023-08-07T09:06:11;10.00;;;2.80;;
18899;SDS011;9582;52.018;6.306;2023-08-07T09:08:39;7.60;;;2.45;;
18899;SDS011;9582;52.018;6.306;2023-08-07T09:11:08;7.22;;;2.47;;
18899;SDS011;9582;52.018;6.306;2023-08-07T09:13:36;8.32;;;2.88;;
18899;SDS011;9582;52.018;6.306;2023-08-07T09:16:04;7.05;;;2.72;;
18899;SDS011;9582;52.018;6.306;2023-08-07T09:18:33;7.70;;;2.58;;
18899;SDS011;9582;52.018;6.306;2023-08-07T09:21:02;5.47;;;1.92;;
18899;SDS011;9582;52.018;6.306;2023-08-07T09:23:29;5.35;;;2.15;;
18899;SDS011;9582;52.018;6.306;2023-08-07T09:25:58;4.68;;;1.48;;
18899;SDS011;9582;52.018;6.306;2023-08-07T09:28:25;4.78;;;2.33;;
18899;SDS011;9582;52.018;6.306;2023-08-07T09:30:52;6.68;;;2.60;;
18899;SDS011;9582;52.018;6.306;2023-08-07T09:33:23;8.10;;;3.00;;
18899;SDS011;9582;52.018;6.306;2023-08-07T09:35:50;4.78;;;1.80;;
18899;SDS011;9582;52.018;6.306;2023-08-07T09:38:18;6.82;;;1.98;;
18899;SDS011;9582;52.018;6.306;2023-08-07T09:40:45;3.35;;;1.50;;
18899;SDS011;9582;52.018;6.306;2023-08-07T09:43:11;2.92;;;1.90;;
18899;SDS011;9582;52.018;6.306;2023-08-07T09:45:47;7.53;;;1.80;;
18899;SDS011;9582;52.018;6.306;2023-08-07T09:48:15;5.18;;;2.03;;
18899;SDS011;9582;52.018;6.306;2023-08-07T09:50:48;7.40;;;2.20;;
18899;SDS011;9582;52.018;6.306;2023-08-07T09:53:15;3.78;;;1.63;;
18899;SDS011;9582;52.018;6.306;2023-08-07T09:55:43;4.70;;;1.60;;
18899;SDS011;9582;52.018;6.306;2023-08-07T09:58:11;4.20;;;1.80;;
18899;SDS011;9582;52.018;6.306;2023-08-07T10:00:38;2.85;;;1.67;;
18899;SDS011;9582;52.018;6.306;2023-08-07T10:03:06;3.90;;;1.90;;
18899;SDS011;9582;52.018;6.306;2023-08-07T10:05:33;5.13;;;2.10;;
18899;SDS011;9582;52.018;6.306;2023-08-07T10:07:59;5.93;;;1.80;;
18899;SDS011;9582;52.018;6.306;2023-08-07T10:10:27;4.53;;;1.52;;
18899;SDS011;9582;52.018;6.306;2023-08-07T10:12:55;3.50;;;1.88;;
18899;SDS011;9582;52.018;6.306;2023-08-07T10:15:24;2.95;;;1.55;;
18899;SDS011;9582;52.018;6.306;2023-08-07T10:17:51;2.90;;;1.55;;
18899;SDS011;9582;52.018;6.306;2023-08-07T10:20:18;4.35;;;1.58;;
18899;SDS011;9582;52.018;6.306;2023-08-07T10:22:45;4.47;;;1.73;;
18899;SDS011;9582;52.018;6.306;2023-08-07T10:25:13;3.65;;;1.70;;
18899;SDS011;9582;52.018;6.306;2023-08-07T10:27:40;4.07;;;1.13;;
18899;SDS011;9582;52.018;6.306;2023-08-07T10:30:10;4.72;;;1.50;;
18899;SDS011;9582;52.018;6.306;2023-08-07T10:32:40;5.72;;;1.50;;
18899;SDS011;9582;52.018;6.306;2023-08-07T10:35:08;3.30;;;2.00;;
18899;SDS011;9582;52.018;6.306;2023-08-07T10:37:38;1.95;;;1.42;;
18899;SDS011;9582;52.018;6.306;2023-08-07T10:40:06;4.60;;;1.77;;
18899;SDS011;9582;52.018;6.306;2023-08-07T10:45:38;2.95;;;1.40;;
18899;SDS011;9582;52.018;6.306;2023-08-07T10:48:05;4.45;;;1.92;;
18899;SDS011;9582;52.018;6.306;2023-08-07T10:50:32;3.22;;;1.60;;
18899;SDS011;9582;52.018;6.306;2023-08-07T10:53:00;2.60;;;1.48;;
18899;SDS011;9582;52.018;6.306;2023-08-07T10:55:31;7.32;;;2.25;;
18899;SDS011;9582;52.018;6.306;2023-08-07T10:58:08;5.05;;;2.00;;
18899;SDS011;9582;52.018;6.306;2023-08-07T11:00:49;2.97;;;1.65;;
18899;SDS011;9582;52.018;6.306;2023-08-07T11:03:19;4.13;;;1.83;;
18899;SDS011;9582;52.018;6.306;2023-08-07T11:05:52;3.85;;;2.00;;
18899;SDS011;9582;52.018;6.306;2023-08-07T11:08:21;3.35;;;1.30;;
18899;SDS011;9582;52.018;6.306;2023-08-07T11:10:48;5.15;;;1.77;;
18899;SDS011;9582;52.018;6.306;2023-08-07T11:13:16;2.15;;;1.50;;
18899;SDS011;9582;52.018;6.306;2023-08-07T11:15:43;4.13;;;1.70;;
18899;SDS011;9582;52.018;6.306;2023-08-07T11:18:11;7.05;;;2.10;;
18899;SDS011;9582;52.018;6.306;2023-08-07T11:20:38;4.25;;;1.88;;
18899;SDS011;9582;52.018;6.306;2023-08-07T11:23:05;2.63;;;1.63;;
18899;SDS011;9582;52.018;6.306;2023-08-07T11:25:31;3.78;;;1.70;;
18899;SDS011;9582;52.018;6.306;2023-08-07T11:27:58;3.05;;;1.70;;
18899;SDS011;9582;52.018;6.306;2023-08-07T11:30:24;3.38;;;1.48;;
18899;SDS011;9582;52.018;6.306;2023-08-07T11:32:51;2.75;;;1.40;;
18899;SDS011;9582;52.018;6.306;2023-08-07T11:35:19;3.13;;;1.50;;
18899;SDS011;9582;52.018;6.306;2023-08-07T11:37:46;7.72;;;2.38;;
18899;SDS011;9582;52.018;6.306;2023-08-07T11:40:13;6.68;;;2.00;;
18899;SDS011;9582;52.018;6.306;2023-08-07T11:42:40;5.38;;;2.10;;
18899;SDS011;9582;52.018;6.306;2023-08-07T11:45:07;4.75;;;1.63;;
18899;SDS011;9582;52.018;6.306;2023-08-07T11:47:34;7.75;;;2.15;;
18899;SDS011;9582;52.018;6.306;2023-08-07T11:50:01;6.47;;;1.90;;
18899;SDS011;9582;52.018;6.306;2023-08-07T11:52:30;4.93;;;1.45;;
18899;SDS011;9582;52.018;6.306;2023-08-07T11:54:56;3.65;;;1.60;;
18899;SDS011;9582;52.018;6.306;2023-08-07T11:57:24;3.22;;;1.52;;
18899;SDS011;9582;52.018;6.306;2023-08-07T11:59:51;6.43;;;1.90;;
18899;SDS011;9582;52.018;6.306;2023-08-07T12:02:21;3.42;;;1.50;;
18899;SDS011;9582;52.018;6.306;2023-08-07T12:04:49;2.65;;;1.80;;
18899;SDS011;9582;52.018;6.306;2023-08-07T12:07:17;4.75;;;1.60;;
18899;SDS011;9582;52.018;6.306;2023-08-07T12:09:47;5.47;;;1.85;;
18899;SDS011;9582;52.018;6.306;2023-08-07T12:12:13;4.28;;;1.90;;
18899;SDS011;9582;52.018;6.306;2023-08-07T12:14:40;3.17;;;1.70;;
18899;SDS011;9582;52.018;6.306;2023-08-07T12:17:08;2.47;;;1.30;;
18899;SDS011;9582;52.018;6.306;2023-08-07T12:19:35;2.92;;;1.92;;
18899;SDS011;9582;52.018;6.306;2023-08-07T12:22:05;4.15;;;1.90;;
18899;SDS011;9582;52.018;6.306;2023-08-07T12:24:32;5.35;;;2.05;;
18899;SDS011;9582;52.018;6.306;2023-08-07T12:27:02;1.88;;;1.17;;
18899;SDS011;9582;52.018;6.306;2023-08-07T12:29:29;3.67;;;1.50;;
18899;SDS011;9582;52.018;6.306;2023-08-07T12:31:55;4.97;;;1.83;;
18899;SDS011;9582;52.018;6.306;2023-08-07T12:34:24;4.35;;;2.05;;
18899;SDS011;9582;52.018;6.306;2023-08-07T12:36:50;4.90;;;2.00;;
18899;SDS011;9582;52.018;6.306;2023-08-07T12:39:17;7.65;;;2.03;;
18899;SDS011;9582;52.018;6.306;2023-08-07T12:41:43;5.85;;;1.85;;
18899;SDS011;9582;52.018;6.306;2023-08-07T12:44:11;5.18;;;2.38;;
18899;SDS011;9582;52.018;6.306;2023-08-07T12:46:38;5.97;;;2.45;;
18899;SDS011;9582;52.018;6.306;2023-08-07T12:49:05;5.05;;;1.90;;
18899;SDS011;9582;52.018;6.306;2023-08-07T12:51:34;6.50;;;2.08;;
18899;SDS011;9582;52.018;6.306;2023-08-07T12:54:01;5.53;;;1.92;;
18899;SDS011;9582;52.018;6.306;2023-08-07T12:56:27;5.97;;;2.15;;
18899;SDS011;9582;52.018;6.306;2023-08-07T12:58:54;4.82;;;1.65;;
18899;SDS011;9582;52.018;6.306;2023-08-07T13:01:21;6.72;;;1.83;;
18899;SDS011;9582;52.018;6.306;2023-08-07T13:03:48;6.95;;;2.08;;
18899;SDS011;9582;52.018;6.306;2023-08-07T13:06:14;4.13;;;2.08;;
18899;SDS011;9582;52.018;6.306;2023-08-07T13:08:41;4.30;;;1.83;;
18899;SDS011;9582;52.018;6.306;2023-08-07T13:11:07;4.65;;;2.17;;
18899;SDS011;9582;52.018;6.306;2023-08-07T13:13:34;5.82;;;2.10;;
18899;SDS011;9582;52.018;6.306;2023-08-07T13:16:03;7.25;;;2.30;;
18899;SDS011;9582;52.018;6.306;2023-08-07T13:18:31;5.47;;;2.35;;
18899;SDS011;9582;52.018;6.306;2023-08-07T13:20:57;4.28;;;1.80;;
18899;SDS011;9582;52.018;6.306;2023-08-07T13:23:24;2.42;;;1.52;;
18899;SDS011;9582;52.018;6.306;2023-08-07T13:25:51;4.38;;;1.77;;
18899;SDS011;9582;52.018;6.306;2023-08-07T13:28:17;3.92;;;1.75;;
18899;SDS011;9582;52.018;6.306;2023-08-07T13:30:43;3.05;;;1.42;;
18899;SDS011;9582;52.018;6.306;2023-08-07T13:33:10;4.85;;;2.20;;
18899;SDS011;9582;52.018;6.306;2023-08-07T13:35:38;3.00;;;1.77;;
18899;SDS011;9582;52.018;6.306;2023-08-07T13:38:04;3.65;;;1.92;;
18899;SDS011;9582;52.018;6.306;2023-08-07T13:40:32;3.67;;;1.42;;
18899;SDS011;9582;52.018;6.306;2023-08-07T13:42:59;1.92;;;1.40;;
18899;SDS011;9582;52.018;6.306;2023-08-07T13:45:28;2.88;;;1.25;;
18899;SDS011;9582;52.018;6.306;2023-08-07T13:47:54;3.67;;;1.50;;
18899;SDS011;9582;52.018;6.306;2023-08-07T13:50:21;5.15;;;2.03;;
18899;SDS011;9582;52.018;6.306;2023-08-07T13:52:48;2.40;;;1.25;;
18899;SDS011;9582;52.018;6.306;2023-08-07T13:55:15;2.75;;;1.10;;
18899;SDS011;9582;52.018;6.306;2023-08-07T13:57:42;3.10;;;1.40;;
18899;SDS011;9582;52.018;6.306;2023-08-07T14:00:09;2.40;;;1.40;;
18899;SDS011;9582;52.018;6.306;2023-08-07T14:02:37;5.68;;;1.70;;
18899;SDS011;9582;52.018;6.306;2023-08-07T14:05:04;5.82;;;2.28;;
18899;SDS011;9582;52.018;6.306;2023-08-07T14:07:31;3.75;;;1.45;;
18899;SDS011;9582;52.018;6.306;2023-08-07T14:09:59;5.22;;;1.77;;
18899;SDS011;9582;52.018;6.306;2023-08-07T14:12:25;2.42;;;1.80;;
18899;SDS011;9582;52.018;6.306;2023-08-07T14:14:52;4.25;;;1.85;;
18899;SDS011;9582;52.018;6.306;2023-08-07T14:17:19;4.68;;;1.65;;
18899;SDS011;9582;52.018;6.306;2023-08-07T14:19:45;3.70;;;1.60;;
18899;SDS011;9582;52.018;6.306;2023-08-07T14:22:12;5.45;;;1.60;;
18899;SDS011;9582;52.018;6.306;2023-08-07T14:24:39;5.43;;;1.45;;
18899;SDS011;9582;52.018;6.306;2023-08-07T14:27:07;3.47;;;1.67;;
18899;SDS011;9582;52.018;6.306;2023-08-07T14:29:34;3.83;;;1.45;;
18899;SDS011;9582;52.018;6.306;2023-08-07T14:32:00;2.55;;;1.45;;
18899;SDS011;9582;52.018;6.306;2023-08-07T14:34:27;1.73;;;1.40;;
18899;SDS011;9582;52.018;6.306;2023-08-07T14:36:53;4.50;;;1.42;;
18899;SDS011;9582;52.018;6.306;2023-08-07T14:39:20;3.17;;;1.48;;
18899;SDS011;9582;52.018;6.306;2023-08-07T14:41:46;3.38;;;1.65;;
18899;SDS011;9582;52.018;6.306;2023-08-07T14:44:18;3.15;;;1.60;;
18899;SDS011;9582;52.018;6.306;2023-08-07T14:46:44;4.95;;;1.60;;
18899;SDS011;9582;52.018;6.306;2023-08-07T14:49:11;8.18;;;1.58;;
18899;SDS011;9582;52.018;6.306;2023-08-07T14:51:38;3.38;;;1.30;;
18899;SDS011;9582;52.018;6.306;2023-08-07T14:54:04;3.28;;;1.27;;
18899;SDS011;9582;52.018;6.306;2023-08-07T14:56:30;2.83;;;1.38;;
18899;SDS011;9582;52.018;6.306;2023-08-07T14:58:57;2.33;;;1.00;;
18899;SDS011;9582;52.018;6.306;2023-08-07T15:01:25;4.72;;;1.50;;
18899;SDS011;9582;52.018;6.306;2023-08-07T15:03:51;1.35;;;0.85;;